Time;durP1;ratioP1;P1;durP2;ratioP2;P2;SDS_P1;SDS_P2;PMS_P1;PMS_P2;Temp;Humidity;BMP_temperature;BMP_pressure;BME280_temperature;BME280_humidity;BME280_pressure;Samples;Min_cycle;Max_cycle;Signal;HPM_P1;HPM_P2
2023/10/13 00:01:42;;;;;;;10.45;5.22;;;;;;;12.81;100.00;96889.66;4989922;28;20145;-68
2023/10/13 00:04:08;;;;;;;15.63;5.95;;;;;;;12.79;100.00;96892.00;4995754;28;20143;-68
2023/10/13 00:06:34;;;;;;;13.93;6.50;;;;;;;12.72;100.00;96889.16;5002989;28;20046;-68
2023/10/13 00:08:59;;;;;;;17.50;5.95;;;;;;;12.55;100.00;96892.50;5002902;28;20037;-70
2023/10/13 00:11:26;;;;;;;9.88;4.93;;;;;;;12.51;100.00;96888.94;4998940;28;20078;-67
2023/10/13 00:13:53;;;;;;;11.25;5.28;;;;;;;12.55;100.00;96885.06;5003132;28;20488;-71
2023/10/13 00:16:27;;;;;;;10.15;4.93;;;;;;;12.56;100.00;96888.59;4983829;28;20048;-70
2023/10/13 00:18:57;;;;;;;13.02;5.57;;;;;;;12.50;100.00;96888.16;5004661;28;20041;-71
2023/10/13 00:21:32;;;;;;;10.57;4.85;;;;;;;12.43;100.00;96888.84;4989207;28;20637;-69
2023/10/13 00:24:01;;;;;;;15.27;5.20;;;;;;;12.31;100.00;96891.03;5004485;28;20042;-70
2023/10/13 00:26:28;;;;;;;10.47;4.80;;;;;;;12.36;100.00;96888.75;4993359;28;20685;-68
2023/10/13 00:29:09;;;;;;;12.68;5.38;;;;;;;12.40;100.00;96880.56;4994168;28;20049;-69
2023/10/13 00:31:42;;;;;;;11.07;4.75;;;;;;;12.38;100.00;96880.16;5008834;28;20046;-66
2023/10/13 00:34:15;;;;;;;12.07;5.30;;;;;;;12.40;100.00;96880.56;4987202;28;20452;-69
2023/10/13 00:36:48;;;;;;;15.75;5.20;;;;;;;12.35;100.00;96878.13;5003584;28;20044;-69
2023/10/13 00:39:15;;;;;;;11.40;5.45;;;;;;;12.33;100.00;96880.47;4998056;28;20046;-69
2023/10/13 00:42:07;;;;;;;15.25;5.63;;;;;;;12.20;100.00;96877.19;4994782;28;20056;-68
2023/10/13 00:44:43;;;;;;;17.10;4.85;;;;;;;12.11;100.00;96879.41;4996643;28;20062;-69
2023/10/13 00:47:22;;;;;;;16.13;5.40;;;;;;;11.98;100.00;96873.38;4994103;28;20452;-69
2023/10/13 00:49:48;;;;;;;14.35;5.65;;;;;;;12.00;100.00;96865.56;4995121;28;20049;-69
2023/10/13 00:52:18;;;;;;;12.75;5.45;;;;;;;11.98;100.00;96868.66;4995373;28;20082;-70
2023/10/13 00:54:45;;;;;;;;;;;;;;;11.98;100.00;96874.16;4997639;28;20038;-68
2023/10/13 00:57:28;;;;;;;13.23;5.80;;;;;;;11.92;100.00;96870.16;4990835;28;19913;-71
2023/10/13 00:59:55;;;;;;;10.77;5.25;;;;;;;11.96;100.00;96873.72;4994996;28;20125;-69
2023/10/13 01:05:03;;;;;;;10.63;5.75;;;;;;;11.88;100.00;96874.75;5003038;28;20057;-68
2023/10/13 01:07:28;;;;;;;12.60;5.70;;;;;;;11.85;100.00;96876.31;4977309;28;20184;-70
2023/10/13 01:09:55;;;;;;;10.80;5.60;;;;;;;11.83;100.00;96884.13;4994705;28;20128;-69
2023/10/13 01:12:23;;;;;;;9.27;5.53;;;;;;;11.77;100.00;96868.34;4973025;28;20041;-68
2023/10/13 01:14:49;;;;;;;13.05;6.22;;;;;;;11.78;100.00;96878.16;4994618;28;20034;-70
2023/10/13 01:17:14;;;;;;;12.98;5.63;;;;;;;11.66;100.00;96865.44;4987759;28;20050;-69
2023/10/13 01:19:42;;;;;;;12.52;5.13;;;;;;;11.58;100.00;96867.28;4995714;28;20042;-69
2023/10/13 01:22:08;;;;;;;10.70;5.55;;;;;;;11.51;100.00;96866.41;4987931;28;20049;-70
2023/10/13 01:24:36;;;;;;;10.88;5.80;;;;;;;11.50;100.00;96870.28;4991676;28;20034;-69
2023/10/13 01:27:16;;;;;;;10.15;5.78;;;;;;;11.42;100.00;96859.19;4995448;28;20073;-68
2023/10/13 01:29:47;;;;;;;15.88;5.50;;;;;;;11.44;100.00;96862.38;4984294;28;20040;-69
2023/10/13 01:32:23;;;;;;;11.57;6.47;;;;;;;11.31;100.00;96857.44;4985630;28;20035;-68
2023/10/13 01:34:49;;;;;;;16.00;6.18;;;;;;;11.17;100.00;96856.06;4997459;28;20069;-69
2023/10/13 01:37:16;;;;;;;10.30;5.80;;;;;;;11.17;100.00;96852.53;4980209;28;20073;-68
2023/10/13 01:39:41;;;;;;;12.52;5.32;;;;;;;11.24;100.00;96856.19;4995190;28;20042;-69
2023/10/13 01:42:07;;;;;;;18.27;6.30;;;;;;;11.27;100.00;96849.97;4986952;28;20175;-68
2023/10/13 01:44:32;;;;;;;10.50;5.85;;;;;;;11.21;100.00;96847.91;4991099;28;20045;-68
2023/10/13 01:47:08;;;;;;;9.23;5.85;;;;;;;11.22;100.00;96847.53;5001414;28;20077;-69
2023/10/13 01:49:42;;;;;;;17.17;5.93;;;;;;;11.22;100.00;96847.53;4987193;28;20042;-69
2023/10/13 01:52:11;;;;;;;15.13;6.72;;;;;;;11.26;100.00;96839.38;4997520;28;20551;-68
2023/10/13 01:54:40;;;;;;;13.75;6.18;;;;;;;11.22;100.00;96838.53;4999830;28;20104;-68
2023/10/13 01:57:13;;;;;;;13.90;6.67;;;;;;;11.24;100.00;96847.16;4979662;28;20488;-69
2023/10/13 01:59:44;;;;;;;14.85;6.80;;;;;;;11.17;100.00;96839.63;5000374;28;20045;-69
2023/10/13 02:02:13;;;;;;;14.80;6.00;;;;;;;11.14;100.00;96834.06;4969319;28;20044;-68
2023/10/13 02:04:48;;;;;;;11.13;6.20;;;;;;;11.07;100.00;96846.50;4991076;28;20038;-69
2023/10/13 02:07:15;;;;;;;16.42;5.88;;;;;;;11.01;100.00;96847.97;4990162;28;20034;-69
2023/10/13 02:09:42;;;;;;;14.48;5.65;;;;;;;10.89;100.00;96839.91;4985964;28;20035;-68
2023/10/13 02:12:09;;;;;;;15.02;6.53;;;;;;;10.88;100.00;96843.84;4996649;28;20444;-68
2023/10/13 02:14:36;;;;;;;16.65;6.43;;;;;;;10.96;100.00;96842.00;4997603;28;20038;-68
2023/10/13 02:17:12;;;;;;;15.10;6.90;;;;;;;10.94;100.00;96839.63;4987014;28;20097;-67
2023/10/13 02:19:45;;;;;;;23.67;6.63;;;;;;;10.99;100.00;96842.06;4999557;28;20066;-68
2023/10/13 02:22:11;;;;;;;14.50;6.22;;;;;;;10.81;100.00;96841.75;4990661;28;20046;-68
2023/10/13 02:24:40;;;;;;;15.18;6.85;;;;;;;10.73;100.00;96842.75;4993969;28;20046;-69
2023/10/13 02:27:13;;;;;;;12.73;6.30;;;;;;;10.65;100.00;96836.38;4991404;28;20046;-68
2023/10/13 02:29:40;;;;;;;15.50;7.65;;;;;;;10.59;100.00;96834.28;4991961;28;20038;-69
2023/10/13 02:32:13;;;;;;;12.05;6.22;;;;;;;10.52;100.00;96833.00;4988098;28;20504;-67
2023/10/13 02:34:43;;;;;;;11.60;6.40;;;;;;;10.44;100.00;96833.25;4991775;28;20053;-67
2023/10/13 02:37:10;;;;;;;16.08;6.07;;;;;;;10.48;100.00;96840.38;5005209;28;20524;-67
2023/10/13 02:39:38;;;;;;;13.38;6.30;;;;;;;10.59;100.00;96835.09;4992014;28;20077;-69
2023/10/13 02:42:16;;;;;;;16.55;6.07;;;;;;;10.63;100.00;96841.44;4997673;28;20101;-66
2023/10/13 02:44:45;;;;;;;12.07;5.72;;;;;;;10.73;100.00;96842.75;4996678;28;20046;-69
2023/10/13 02:47:13;;;;;;;;;;;;;;;10.68;100.00;96832.13;4984199;28;20043;-67
2023/10/13 02:49:43;;;;;;;12.52;5.82;;;;;;;10.36;100.00;96837.00;5004656;28;20276;-70
2023/10/13 02:52:09;;;;;;;11.93;5.70;;;;;;;10.22;100.00;96837.47;4999664;28;20065;-68
2023/10/13 02:54:39;;;;;;;11.88;5.93;;;;;;;10.21;100.00;96830.41;5004604;28;20404;-69
2023/10/13 02:57:05;;;;;;;14.80;6.25;;;;;;;10.27;100.00;96821.56;4999145;28;20038;-65
2023/10/13 02:59:38;;;;;;;16.67;6.60;;;;;;;10.33;100.00;96827.56;5005082;28;20042;-68
2023/10/13 03:02:17;;;;;;;11.13;6.03;;;;;;;10.35;100.00;96827.19;4990724;28;20043;-66
2023/10/13 03:04:59;;;;;;;16.13;5.75;;;;;;;10.33;100.00;96820.16;4996863;28;20050;-69
2023/10/13 03:07:30;;;;;;;11.65;5.65;;;;;;;10.32;100.00;96821.28;4978543;28;20363;-69
2023/10/13 03:10:09;;;;;;;10.32;5.68;;;;;;;10.29;100.00;96824.72;4992866;28;20042;-69
2023/10/13 03:12:35;;;;;;;14.57;6.45;;;;;;;10.14;100.00;96829.13;4986632;28;20072;-69
2023/10/13 03:17:37;;;;;;;10.63;4.70;;;;;;;10.10;100.00;96828.28;4997974;28;20044;-70
2023/10/13 03:20:05;;;;;;;12.38;5.45;;;;;;;10.09;100.00;96834.09;4985726;28;20038;-66
2023/10/13 03:22:31;;;;;;;12.45;5.40;;;;;;;10.09;100.00;96828.63;5000364;28;20038;-70
2023/10/13 03:25:04;;;;;;;11.93;5.13;;;;;;;10.04;100.00;96829.69;4998677;28;20038;-70
2023/10/13 03:27:40;;;;;;;10.85;5.65;;;;;;;9.97;100.00;96826.81;4996183;28;20077;-70
2023/10/13 03:30:14;;;;;;;13.32;6.50;;;;;;;10.02;100.00;96828.47;4995560;28;20073;-69
2023/10/13 03:32:46;;;;;;;12.88;6.03;;;;;;;9.90;100.00;96824.75;4984081;28;20046;-69
2023/10/13 03:35:24;;;;;;;11.55;6.13;;;;;;;9.89;100.00;96819.63;4994581;28;20735;-69
2023/10/13 03:37:53;;;;;;;12.70;5.63;;;;;;;9.92;100.00;96816.97;4997839;28;20066;-69
2023/10/13 03:42:57;;;;;;;13.40;5.47;;;;;;;9.86;100.00;96823.06;4994388;28;20034;-69
2023/10/13 03:45:24;;;;;;;11.98;5.05;;;;;;;9.84;100.00;96817.16;4990918;28;20052;-69
2023/10/13 03:47:51;;;;;;;13.25;5.75;;;;;;;9.83;100.00;96815.56;4988281;28;20417;-69
2023/10/13 03:50:29;;;;;;;11.52;4.93;;;;;;;9.83;100.00;96813.66;4995027;28;20042;-69
2023/10/13 03:52:57;;;;;;;11.82;5.03;;;;;;;9.81;100.00;96806.94;4982918;28;20452;-70
2023/10/13 03:55:27;;;;;;;10.55;5.75;;;;;;;9.82;100.00;96806.59;4986687;28;20050;-69
2023/10/13 03:57:53;;;;;;;13.90;5.72;;;;;;;9.73;100.00;96806.00;4998554;28;20065;-69
2023/10/13 04:00:24;;;;;;;12.45;5.47;;;;;;;9.75;100.00;96803.69;4982402;28;20050;-69
2023/10/13 04:05:40;;;;;;;11.48;6.47;;;;;;;9.63;100.00;96798.34;4985670;28;20065;-69
2023/10/13 04:32:32;;;;;;;10.15;5.85;;;;;;;9.59;100.00;96792.03;4984933;28;20046;-68
2023/10/13 04:35:09;;;;;;;14.13;5.90;;;;;;;9.56;100.00;96782.56;4986787;28;20046;-68
2023/10/13 04:37:50;;;;;;;15.35;6.13;;;;;;;9.50;100.00;96782.06;4991161;28;20046;-68
2023/10/13 04:40:19;;;;;;;9.63;4.90;;;;;;;9.41;100.00;96781.47;4993343;28;20040;-68
2023/10/13 04:42:58;;;;;;;11.98;5.32;;;;;;;9.21;100.00;96775.19;5047127;28;20458;-68
2023/10/13 04:50:50;;;;;;;16.45;6.18;;;;;;;8.74;100.00;96773.28;5006671;28;20050;-69
2023/10/13 04:53:59;;;;;;;8.95;5.68;;;;;;;8.66;100.00;96769.59;4994383;28;20548;-69
2023/10/13 05:04:38;;;;;;;11.65;5.95;;;;;;;8.71;100.00;96766.59;4994173;28;20074;-69
2023/10/13 05:46:20;;;;;;;8.00;4.80;;;;;;;9.15;100.00;96780.13;5030104;28;20901;-74
2023/10/13 05:48:41;;;;;;;12.57;6.38;;;;;;;9.13;100.00;96787.91;5009580;28;20975;-73
2023/10/13 06:29:25;;;;;;;9.65;4.85;;;;;;;11.71;100.00;96788.28;4989332;28;21258;-71
2023/10/13 06:31:50;;;;;;;12.57;5.10;;;;;;;12.52;100.00;96788.88;5003889;28;20046;-70
2023/10/13 06:34:15;;;;;;;17.88;5.82;;;;;;;13.28;100.00;96790.31;4991298;28;20046;-71
2023/10/13 06:36:46;;;;;;;11.32;4.72;;;;;;;13.87;100.00;96793.06;4989847;28;20521;-72
2023/10/13 06:39:34;;;;;;;14.07;5.15;;;;;;;14.07;100.00;96794.31;4992451;28;20492;-70
2023/10/13 06:42:00;;;;;;;14.73;4.75;;;;;;;14.69;100.00;96795.31;5011096;28;20158;-69
2023/10/13 06:44:25;;;;;;;14.27;4.38;;;;;;;15.50;100.00;96803.97;4995671;28;20311;-69
2023/10/13 06:46:52;;;;;;;13.77;4.45;;;;;;;16.07;97.75;96805.06;4990322;28;20038;-69
2023/10/13 06:49:18;;;;;;;10.85;4.25;;;;;;;16.81;92.47;96806.66;4985968;28;20046;-70
2023/10/13 06:51:46;;;;;;;10.65;4.28;;;;;;;17.67;86.36;96809.97;4997459;28;20177;-70
2023/10/13 06:54:19;;;;;;;9.93;3.90;;;;;;;18.52;78.29;96813.72;5015582;28;20045;-70
2023/10/13 06:56:46;;;;;;;12.02;5.28;;;;;;;18.97;70.83;96811.97;5001627;28;20050;-71
2023/10/13 06:59:13;;;;;;;12.35;4.15;;;;;;;19.03;71.44;96813.06;4992842;28;20045;-70
2023/10/13 07:01:42;;;;;;;9.02;4.40;;;;;;;18.96;73.53;96811.19;4999972;28;20064;-69
2023/10/13 07:04:14;;;;;;;8.43;3.90;;;;;;;19.04;73.51;96815.41;4995310;28;20435;-70
2023/10/13 07:06:48;;;;;;;15.13;4.68;;;;;;;18.50;76.62;96820.91;4990910;28;20046;-70
2023/10/13 07:12:16;;;;;;;11.63;4.10;;;;;;;18.20;79.41;96819.69;4994086;28;20193;-70
2023/10/13 07:14:51;;;;;;;14.20;4.50;;;;;;;18.56;78.62;96816.47;4995019;28;20112;-70
2023/10/13 07:17:24;;;;;;;9.13;4.40;;;;;;;18.79;77.25;96818.53;4986905;28;20077;-70
2023/10/13 07:19:53;;;;;;;11.50;4.22;;;;;;;19.29;75.91;96819.78;4993754;28;20046;-69
2023/10/13 07:22:20;;;;;;;11.25;4.30;;;;;;;19.78;72.38;96824.94;4977480;28;20046;-70
2023/10/13 07:24:49;;;;;;;16.05;4.07;;;;;;;20.23;71.75;96824.50;4995989;28;20049;-69
2023/10/13 07:27:24;;;;;;;9.70;4.45;;;;;;;20.54;68.17;96830.59;4990914;28;20073;-70
2023/10/13 07:30:41;;;;;;;10.60;4.93;;;;;;;21.32;66.92;96824.50;4994934;28;20435;-69
2023/10/13 07:32:37;;;;;;;13.38;4.30;;;;;;;21.91;64.02;96824.63;4984907;28;20073;-70
2023/10/13 07:35:07;;;;;;;7.32;3.45;;;;;;;22.22;60.96;96835.34;4999938;28;20096;-67
2023/10/13 07:37:33;;;;;;;9.25;4.00;;;;;;;22.24;61.16;96824.56;4999939;28;20100;-70
2023/10/13 07:39:58;;;;;;;12.30;4.60;;;;;;;22.62;60.12;96835.84;5009206;28;20038;-71
2023/10/13 07:42:31;;;;;;;8.90;4.07;;;;;;;23.20;57.41;96842.50;4998301;28;20523;-71
2023/10/13 07:44:57;;;;;;;10.25;4.60;;;;;;;22.48;60.46;96833.47;5006295;28;20045;-70
2023/10/13 07:47:24;;;;;;;17.30;4.72;;;;;;;22.51;60.52;96838.16;4997429;28;20089;-70
2023/10/13 07:49:50;;;;;;;8.07;3.30;;;;;;;23.26;59.50;96840.72;4999227;28;20053;-70
2023/10/13 07:52:35;;;;;;;12.25;3.72;;;;;;;24.28;53.38;96842.50;4988610;28;20056;-69
2023/10/13 07:55:20;;;;;;;11.85;3.45;;;;;;;25.45;50.03;96854.53;5004365;28;20153;-71
2023/10/13 07:57:54;;;;;;;15.43;3.80;;;;;;;25.03;49.45;96852.16;5004685;28;20053;-72
2023/10/13 08:06:04;;;;;;;9.45;3.28;;;;;;;25.25;47.79;96858.53;5020442;28;20521;-69
2023/10/13 08:08:39;;;;;;;9.98;3.63;;;;;;;24.56;46.43;96851.91;5001031;28;20053;-71
2023/10/13 08:11:11;;;;;;;13.98;3.45;;;;;;;24.54;47.45;96850.78;4986062;28;20046;-67
2023/10/13 08:13:46;;;;;;;8.45;3.10;;;;;;;26.03;44.79;96842.50;4993992;28;20050;-70
2023/10/13 08:16:22;;;;;;;7.03;2.97;;;;;;;25.50;42.25;96849.09;4996588;28;20095;-70
2023/10/13 08:18:51;;;;;;;14.18;3.38;;;;;;;23.59;44.81;96840.47;4993858;28;20141;-70
2023/10/13 08:21:22;;;;;;;9.65;3.20;;;;;;;24.40;44.34;96838.84;4990948;28;20100;-70
2023/10/13 08:34:38;;;;;;;9.95;3.70;;;;;;;24.43;43.99;96837.16;5008332;28;20077;-71
2023/10/13 08:37:28;;;;;;;10.27;2.90;;;;;;;25.82;41.18;96840.59;4995138;28;20056;-67
2023/10/13 08:48:13;;;;;;;8.77;2.90;;;;;;;26.46;38.64;96845.47;4993357;28;20037;-71
2023/10/13 08:53:27;;;;;;;6.82;3.00;;;;;;;26.16;38.39;96836.72;5008085;28;20125;-71
2023/10/13 08:56:33;;;;;;;7.10;2.85;;;;;;;26.87;37.34;96832.00;5013239;28;20130;-72
2023/10/13 09:06:57;;;;;;;9.40;3.42;;;;;;;28.73;32.97;96840.84;5003185;28;20049;-71
2023/10/13 09:09:39;;;;;;;12.30;2.95;;;;;;;29.25;33.17;96843.28;5010916;28;21020;-70
2023/10/13 09:12:14;;;;;;;7.10;2.90;;;;;;;29.08;32.50;96837.31;4998997;28;20045;-67
2023/10/13 09:14:44;;;;;;;7.55;3.13;;;;;;;28.25;33.85;96836.09;4998807;28;20069;-70
2023/10/13 09:17:12;;;;;;;8.73;3.40;;;;;;;29.29;32.90;96833.34;4999536;28;20038;-69
2023/10/13 09:19:49;;;;;;;11.10;3.08;;;;;;;29.51;32.38;96837.75;5004374;28;20521;-69
2023/10/13 09:22:27;;;;;;;8.50;3.42;;;;;;;28.85;32.65;96842.59;5004905;28;20069;-70
2023/10/13 09:24:59;;;;;;;6.82;3.10;;;;;;;28.37;34.74;96825.84;4996478;28;20042;-71
2023/10/13 09:27:26;;;;;;;10.68;2.88;;;;;;;28.88;34.10;96830.38;4996699;28;20096;-71
2023/10/13 09:30:18;;;;;;;10.13;3.08;;;;;;;29.35;32.82;96825.75;5003404;28;20108;-70
2023/10/13 09:32:48;;;;;;;6.93;2.90;;;;;;;29.11;32.26;96822.25;5019848;28;20049;-72
2023/10/13 09:35:19;;;;;;;6.53;2.72;;;;;;;29.26;31.62;96827.91;4996578;28;20078;-71
2023/10/13 09:37:48;;;;;;;7.90;2.80;;;;;;;29.61;30.23;96827.91;5021813;28;20037;-71
2023/10/13 09:40:25;;;;;;;8.32;3.03;;;;;;;30.09;29.15;96824.69;4995549;28;20130;-71
2023/10/13 09:42:58;;;;;;;10.43;3.33;;;;;;;29.34;30.41;96812.91;5008410;28;20149;-69
2023/10/13 09:45:43;;;;;;;12.45;3.30;;;;;;;29.95;30.88;96813.50;5016597;28;20266;-71
2023/10/13 09:48:21;;;;;;;10.43;3.33;;;;;;;29.32;34.42;96806.22;4998572;28;20075;-71
2023/10/13 09:50:51;;;;;;;12.40;3.00;;;;;;;29.52;35.14;96788.53;5004082;28;20104;-71
2023/10/13 09:53:18;;;;;;;10.13;3.30;;;;;;;29.86;34.60;96800.28;5001740;28;20372;-71
2023/10/13 09:56:13;;;;;;;14.95;3.88;;;;;;;29.49;36.20;96783.88;5007514;28;20053;-70
2023/10/13 09:58:57;;;;;;;15.40;3.33;;;;;;;28.95;37.15;96775.63;5006013;28;20041;-70
2023/10/13 10:01:31;;;;;;;11.18;3.28;;;;;;;29.41;36.69;96777.09;5002615;28;20064;-71
2023/10/13 10:04:08;;;;;;;9.10;3.13;;;;;;;28.68;36.12;96771.84;5023737;28;20038;-71
2023/10/13 10:06:47;;;;;;;17.67;3.22;;;;;;;28.54;37.90;96773.44;5018447;28;20050;-71
2023/10/13 10:09:12;;;;;;;17.55;3.08;;;;;;;28.02;39.48;96770.91;5010192;28;20037;-71
2023/10/13 10:12:04;;;;;;;9.65;3.15;;;;;;;28.42;38.79;96757.56;5018897;28;20038;-71
2023/10/13 10:15:06;;;;;;;8.38;3.88;;;;;;;27.88;39.39;96765.22;5021319;28;20129;-73
2023/10/13 10:17:42;;;;;;;13.18;3.35;;;;;;;28.02;39.01;96768.09;5013297;28;20288;-70
2023/10/13 10:20:32;;;;;;;13.32;4.05;;;;;;;28.12;39.16;96756.75;4998560;28;20077;-70
2023/10/13 10:22:59;;;;;;;11.02;3.65;;;;;;;28.48;37.79;96755.59;5006586;28;20668;-70
2023/10/13 10:25:35;;;;;;;11.98;4.78;;;;;;;28.09;38.50;96757.72;4998363;28;21006;-68
2023/10/13 10:28:05;;;;;;;13.48;3.90;;;;;;;27.70;38.90;96747.22;5005938;28;20044;-71
2023/10/13 10:30:35;;;;;;;12.27;3.58;;;;;;;27.72;39.51;96739.09;5005284;28;20053;-72
2023/10/13 10:33:06;;;;;;;10.88;3.92;;;;;;;27.77;39.83;96743.28;5022412;28;20508;-71
2023/10/13 10:35:32;;;;;;;9.50;3.03;;;;;;;28.01;39.66;96740.44;5003567;28;20180;-71
2023/10/13 10:38:11;;;;;;;9.77;3.28;;;;;;;28.21;38.18;96736.97;4987947;28;20042;-71
2023/10/13 10:40:56;;;;;;;12.90;3.40;;;;;;;27.87;39.77;96733.47;5013638;28;20042;-71
2023/10/13 10:43:25;;;;;;;12.20;3.15;;;;;;;27.86;38.97;96734.75;5001174;28;20042;-72
2023/10/13 10:45:51;;;;;;;10.68;4.07;;;;;;;27.54;39.88;96727.97;5021494;28;20057;-71
2023/10/13 10:48:18;;;;;;;9.57;3.03;;;;;;;27.50;40.29;96718.94;5016630;28;20038;-72
2023/10/13 10:50:55;;;;;;;14.55;3.45;;;;;;;27.50;40.13;96716.13;5001848;28;20100;-70
2023/10/13 10:53:22;;;;;;;15.75;3.95;;;;;;;27.82;39.40;96709.63;5008004;28;20037;-71
2023/10/13 10:55:48;;;;;;;10.13;2.85;;;;;;;27.70;39.61;96710.66;5005872;28;20058;-71
2023/10/13 10:58:29;;;;;;;15.40;3.60;;;;;;;27.75;39.77;96712.00;4999083;28;20042;-71
2023/10/13 11:01:18;;;;;;;15.50;3.85;;;;;;;27.10;41.56;96709.66;5000274;28;20096;-69
2023/10/13 11:04:08;;;;;;;10.65;3.47;;;;;;;27.16;41.17;96702.09;5021307;28;20085;-70
2023/10/13 11:06:45;;;;;;;;;;;;;;;27.60;40.63;96695.09;5025817;28;20191;-71
2023/10/13 11:10:19;;;;;;;13.82;3.70;;;;;;;28.00;40.12;96691.00;5013098;28;19914;-68
2023/10/13 11:12:13;;;;;;;9.20;2.90;;;;;;;27.65;39.57;96691.63;4985865;28;20038;-69
2023/10/13 11:14:39;;;;;;;9.85;3.00;;;;;;;28.12;38.70;96678.69;5014097;28;20052;-71
2023/10/13 11:17:13;;;;;;;9.38;2.78;;;;;;;28.14;38.23;96676.16;5001846;28;20531;-70
2023/10/13 11:19:42;;;;;;;7.97;2.90;;;;;;;28.70;37.80;96679.16;5021164;28;20048;-72
2023/10/13 11:25:29;;;;;;;14.65;3.83;;;;;;;29.08;36.16;96666.13;4952922;28;20046;-70
2023/10/13 11:27:57;;;;;;;9.77;3.45;;;;;;;29.24;35.99;96659.16;4997185;28;20037;-72
2023/10/13 11:30:40;;;;;;;8.95;3.97;;;;;;;29.27;36.17;96668.69;5001178;28;20139;-70
2023/10/13 11:33:10;;;;;;;9.88;2.95;;;;;;;29.26;36.54;96655.84;5005271;28;20052;-69
2023/10/13 11:38:29;;;;;;;14.32;4.70;;;;;;;28.41;38.33;96654.59;4999804;28;20888;-70
2023/10/13 11:46:15;;;;;;;15.07;3.92;;;;;;;27.60;39.23;96644.47;5001895;28;20041;-72
2023/10/13 11:48:43;;;;;;;11.18;3.60;;;;;;;27.45;40.13;96631.16;5006483;28;20057;-71
2023/10/13 11:51:17;;;;;;;11.52;3.40;;;;;;;27.49;39.87;96624.56;5000240;28;20042;-71
2023/10/13 11:53:47;;;;;;;7.80;3.45;;;;;;;27.17;40.43;96622.16;5021845;28;20045;-71
2023/10/13 11:56:13;;;;;;;8.25;3.30;;;;;;;27.32;40.47;96624.25;5010676;28;20048;-71
2023/10/13 11:58:40;;;;;;;10.90;3.80;;;;;;;27.91;40.15;96618.72;5007586;28;20129;-72
2023/10/13 12:11:54;;;;;;;14.35;3.65;;;;;;;26.93;40.60;96593.28;5010511;28;20077;-72
2023/10/13 12:14:36;;;;;;;14.35;3.70;;;;;;;26.90;42.01;96595.00;4995406;28;20041;-72
2023/10/13 12:17:04;;;;;;;11.02;3.50;;;;;;;26.98;41.79;96587.75;5014800;28;20369;-72
2023/10/13 12:19:30;;;;;;;9.15;3.80;;;;;;;27.20;42.16;96581.03;5020979;28;20045;-71
2023/10/13 12:21:57;;;;;;;13.82;4.18;;;;;;;27.01;41.91;96574.78;5003737;28;20449;-73
2023/10/13 12:27:00;;;;;;;16.75;4.00;;;;;;;27.33;42.03;96573.13;5004969;28;20081;-72
2023/10/13 12:29:29;;;;;;;14.38;3.75;;;;;;;27.14;42.54;96563.28;5002198;28;20046;-72
2023/10/13 12:32:07;;;;;;;17.17;3.85;;;;;;;26.46;44.01;96562.63;5006128;28;20057;-72
2023/10/13 12:54:05;;;;;;;12.00;3.75;;;;;;;25.83;46.18;96522.34;4998894;28;20042;-72
2023/10/13 12:56:31;;;;;;;11.80;4.20;;;;;;;25.87;46.46;96523.72;5003690;28;20041;-73
2023/10/13 12:58:56;;;;;;;11.77;3.85;;;;;;;25.52;47.14;96515.75;5011377;28;20454;-71
2023/10/13 13:01:32;;;;;;;18.30;4.10;;;;;;;25.16;47.62;96522.16;4999732;28;20054;-71
2023/10/13 13:03:58;;;;;;;15.10;3.60;;;;;;;25.22;48.08;96511.88;4989346;28;20045;-70
2023/10/13 13:06:26;;;;;;;15.27;3.67;;;;;;;25.15;48.56;96510.16;5019835;28;20054;-71
2023/10/13 13:08:56;;;;;;;9.60;3.33;;;;;;;25.02;49.25;96500.38;5008223;28;20111;-72
2023/10/13 13:11:22;;;;;;;14.65;4.03;;;;;;;25.11;47.97;96501.16;5004486;28;20038;-72
2023/10/13 13:13:48;;;;;;;17.80;5.63;;;;;;;25.09;48.95;96495.22;5011138;28;20369;-73
2023/10/13 13:16:18;;;;;;;12.65;3.20;;;;;;;25.15;50.16;96489.78;5004444;28;20114;-73
2023/10/13 13:18:47;;;;;;;12.82;3.70;;;;;;;24.97;49.97;96490.56;5002930;28;20054;-73
2023/10/13 13:21:19;;;;;;;8.95;3.45;;;;;;;24.81;50.29;96486.06;5002684;28;20096;-70
2023/10/13 13:23:45;;;;;;;8.75;3.72;;;;;;;24.46;51.76;96483.53;5008686;28;20185;-71
2023/10/13 13:26:19;;;;;;;7.63;3.35;;;;;;;24.21;52.52;96485.34;5020379;28;20128;-71
2023/10/13 13:28:50;;;;;;;11.82;4.28;;;;;;;24.12;52.79;96476.16;4996615;28;20050;-71
2023/10/13 13:31:15;;;;;;;13.70;3.63;;;;;;;23.56;55.64;96469.56;5003404;28;20041;-71
2023/10/13 13:33:43;;;;;;;10.93;3.88;;;;;;;23.67;57.27;96461.53;5008612;28;20133;-71
2023/10/13 13:36:16;;;;;;;15.82;3.42;;;;;;;23.82;57.05;96464.56;5017665;28;20477;-71
2023/10/13 13:38:49;;;;;;;12.13;3.88;;;;;;;23.69;56.96;96455.50;5009009;28;20042;-72
2023/10/13 13:41:18;;;;;;;9.50;3.45;;;;;;;23.76;57.52;96455.97;5016076;28;20068;-69
2023/10/13 13:46:16;;;;;;;12.25;3.50;;;;;;;23.84;56.72;96451.69;5004622;28;20042;-71
2023/10/13 13:48:42;;;;;;;17.17;3.92;;;;;;;23.48;60.80;96443.94;5020810;28;20058;-71
2023/10/13 13:51:14;;;;;;;10.25;3.47;;;;;;;23.58;57.23;96442.72;5000578;28;20523;-70
2023/10/13 13:53:48;;;;;;;12.13;4.05;;;;;;;23.76;57.22;96433.63;5008997;28;20042;-71
2023/10/13 13:56:16;;;;;;;13.45;4.07;;;;;;;23.71;55.85;96441.81;5026667;28;20382;-71
2023/10/13 13:58:49;;;;;;;9.63;3.80;;;;;;;23.68;56.59;96437.94;5006706;28;20046;-72
2023/10/13 14:01:19;;;;;;;14.68;3.92;;;;;;;23.71;58.96;96431.41;5002304;28;20077;-71
2023/10/13 14:03:46;;;;;;;10.27;3.40;;;;;;;23.66;58.85;96426.44;4991034;28;20050;-71
2023/10/13 14:06:23;;;;;;;8.73;3.45;;;;;;;23.75;60.03;96422.88;5000886;28;20037;-71
2023/10/13 14:08:51;;;;;;;9.85;3.45;;;;;;;23.73;61.99;96426.13;5020736;28;20068;-72
2023/10/13 14:14:04;;;;;;;9.30;3.90;;;;;;;23.29;60.20;96412.31;5002170;28;20504;-72
2023/10/13 14:16:33;;;;;;;12.48;4.32;;;;;;;23.21;62.67;96411.03;5000490;28;20046;-73
2023/10/13 14:19:01;;;;;;;11.40;4.55;;;;;;;23.21;65.16;96402.63;5011710;28;20038;-72
2023/10/13 14:21:42;;;;;;;16.00;4.82;;;;;;;22.97;66.97;96396.75;5023059;28;20525;-72
2023/10/13 14:24:14;;;;;;;6.93;3.90;;;;;;;22.71;69.12;96400.47;5016734;28;20041;-74
2023/10/13 14:26:42;;;;;;;10.98;4.72;;;;;;;22.70;65.90;96401.69;5007792;28;20049;-73
2023/10/13 14:29:09;;;;;;;8.98;4.05;;;;;;;22.60;62.53;96407.66;5001269;28;20034;-75
2023/10/13 14:31:41;;;;;;;15.18;4.07;;;;;;;22.51;59.90;96408.41;5005491;28;20504;-72
2023/10/13 14:34:07;;;;;;;14.63;3.83;;;;;;;22.45;59.94;96404.63;5005483;28;20056;-73
2023/10/13 14:36:35;;;;;;;13.68;4.07;;;;;;;22.41;60.02;96395.59;5010237;28;20049;-73
2023/10/13 14:39:09;;;;;;;8.82;3.80;;;;;;;22.36;59.26;96390.59;5005677;28;20049;-72
2023/10/13 14:41:35;;;;;;;23.48;6.78;;;;;;;22.36;59.89;96388.56;5022769;28;20050;-73
2023/10/13 14:44:05;;;;;;;14.18;5.10;;;;;;;22.32;60.22;96383.13;5028739;28;20041;-70
2023/10/13 14:46:31;;;;;;;13.13;5.45;;;;;;;22.33;59.74;96389.50;5005224;28;20440;-73
2023/10/13 14:48:57;;;;;;;11.50;4.68;;;;;;;22.33;59.30;96379.09;5007124;28;20488;-73
2023/10/13 14:51:25;;;;;;;12.50;4.38;;;;;;;22.11;60.00;96383.84;5026644;28;20176;-73
2023/10/13 14:53:55;;;;;;;11.75;4.03;;;;;;;22.17;58.62;96382.03;4999095;28;20030;-73
2023/10/13 14:56:25;;;;;;;11.07;4.05;;;;;;;22.10;60.03;96377.50;5009267;28;20042;-73
2023/10/13 14:58:50;;;;;;;19.13;4.30;;;;;;;22.03;58.94;96368.59;5008043;28;20090;-73
2023/10/13 15:01:18;;;;;;;12.15;4.07;;;;;;;22.12;59.56;96374.25;5008294;28;20044;-73
2023/10/13 15:03:45;;;;;;;14.35;4.32;;;;;;;22.19;59.86;96376.03;4999730;28;20508;-73
2023/10/13 15:06:24;;;;;;;9.85;4.22;;;;;;;22.25;56.93;96377.00;5001291;28;20045;-74
2023/10/13 15:08:54;;;;;;;12.40;3.97;;;;;;;22.00;57.07;96370.25;5002474;28;20092;-73
2023/10/13 15:11:20;;;;;;;12.02;4.35;;;;;;;22.00;57.17;96369.50;5000991;28;20100;-71
2023/10/13 15:13:49;;;;;;;12.38;4.38;;;;;;;21.89;56.74;96370.63;5005931;28;20049;-72
2023/10/13 15:16:19;;;;;;;14.30;4.32;;;;;;;21.86;56.86;96365.16;4999537;28;20046;-73
2023/10/13 15:18:46;;;;;;;15.80;4.32;;;;;;;21.63;58.49;96360.78;5008360;28;20080;-73